Lowell, MA (01854)

3:02 PM EDT on July 26, 2016 (GMT -0400)
Mill City Weather | | Change Station
Active Advisory: Special Statement

Elev 128 ft 42.66 °N, 71.33 °W | Updated 1 minute ago

Mostly Cloudy
Mostly Cloudy
92.8 °F
Feels Like 91 °F
N
5.8
Wind Variable Wind from SE

Today
High -- | Low -- °F
--% Chance of Precip.
Yesterday
High -- | Low -- °F
Precip. -- in
Pressure 29.80 in
Visibility 10.0 miles
Clouds Mostly Cloudy 7000 ft
Heat Index 91 °F
Dew Point 56 °F
Humidity 29%
Rainfall 0.00 in
Snow Depth Not available.
5:31 AM 8:11 PM
Waning Gibbous, 52% visible
METAR KLWM 261854Z 29009G15KT 10SM BKN070 34/14 A2980 RMK AO2 SLP089 T03390144
Pressure 29.80 in
Visibility 10.0 miles
Clouds Mostly Cloudy 7000 ft
Heat Index 91 °F
Dew Point 56 °F
Humidity 29%
Rainfall 0.00 in
Snow Depth Not available.
5:31 AM 8:11 PM
Waning Gibbous, 52% visible
METAR KLWM 261854Z 29009G15KT 10SM BKN070 34/14 A2980 RMK AO2 SLP089 T03390144

10-Day Weather Forecast

Almanac

Astronomy

Jul. 26, 2016 Rise Set
Actual Time
Civil Twilight
Nautical Twilight
Astronomical Twilight
Moon
Length of Visible Light
Length of Day
Tomorrow will be .
, % of the Moon is Illuminated

Today's Extremes

State Highs State Lows

Community

WunderPhotos

Upload Photos

1,927,662 photos uploaded!

WunderBlog® & News

Nearby

Air Quality

  Air Quality AQ Index Pollutant
Not available.

Snow Depth

Station Depth Elevation

Earthquake Activity

City Distance Mag. Time & Date
Minimum magnitude displayed is 2.5.

Coastal Water Temperatures

Place Temperature

Stations

Nearby Weather Stations

Station Location Temp. Windchill Dew Point Humidity Wind Precip. Elev Updated Type
                   

Watches & Warnings

Special Statement
Issued: 7:27 AM EDT Jul. 26, 2016 – National Weather Service

... Elevated fire weather potential today and Wednesday...

Dry weather is expected today and Wednesday with minimum relative
humidity values near 30 percent. In addition... west winds will
gust around 20 mph around midday and the afternoon. These factors
combined with a lack of recent widespread rainfall will create an
elevated fire weather potential in interior sections of
Massachusetts... Rhode Island and Connecticut.


Dunten

727 am EDT Tue Jul 26 2016

... Elevated fire weather potential today and Wednesday...

Dry weather is expected today and Wednesday with minimum relative
humidity values near 30 percent. In addition... west winds will
gust around 20 mph around midday and the afternoon. These factors
combined with a lack of recent widespread rainfall will create an
elevated fire weather potential in interior sections of
Massachusetts... Rhode Island and Connecticut.


Dunten